Terminal Aerodrome Forecast
Issued by NWS Knoxville/Tri Cities, TN

Home | Current Version | Previous Version | Text Only | Print | Product List | Glossary On
Versions: 1 2 3 4 5 6 7 8 9 10 11 12 13 14 15 16 17 18 19 20
000
FTUS44 KMRX 031120
TAFTRI
TAF
KTRI 031120Z 0312/0412 00000KT P6SM BKN025
     FM031500 VRB02KT P6SM BKN035
     FM031800 02005KT P6SM BKN150
     FM040600 05003KT P6SM OVC080
     FM040900 05003KT 5SM -RA OVC040=

USA.gov is the U.S. government's official web portal to all federal, state and local government web resources and services.